createdAt,value
2022-12-25T00:00:05.173Z,8.68
2022-12-25T00:00:52.184Z,12.25
2022-12-25T00:01:39.230Z,7.35
2022-12-25T00:02:26.197Z,7.30
2022-12-25T00:03:13.214Z,6.32
2022-12-25T00:04:00.143Z,10.02
2022-12-25T00:04:47.113Z,7.20
2022-12-25T00:05:34.065Z,7.37
2022-12-25T00:06:20.933Z,7.87
2022-12-25T00:07:07.814Z,7.20
2022-12-25T00:07:54.674Z,6.87
2022-12-25T00:08:41.705Z,9.02
2022-12-25T00:09:29.204Z,7.03
2022-12-25T00:10:16.410Z,5.37
2022-12-25T00:11:09.248Z,6.80
2022-12-25T00:11:56.231Z,6.00
2022-12-25T00:12:43.085Z,7.65
2022-12-25T00:13:30.130Z,9.65
2022-12-25T00:14:17.057Z,7.57
2022-12-25T00:15:04.497Z,6.68
2022-12-25T00:15:51.420Z,7.35
2022-12-25T00:16:38.416Z,6.45
2022-12-25T00:17:25.308Z,4.80
2022-12-25T00:18:12.188Z,6.90
2022-12-25T00:18:59.307Z,13.07
2022-12-25T00:19:46.219Z,8.30
2022-12-25T00:20:33.059Z,7.18
2022-12-25T00:21:20.943Z,6.75
2022-12-25T00:22:07.897Z,6.87
2022-12-25T00:22:54.898Z,8.38
2022-12-25T00:23:42.130Z,7.15
2022-12-25T00:24:29.057Z,8.35
2022-12-25T00:25:15.975Z,9.45
2022-12-25T00:26:12.064Z,8.77
2022-12-25T00:26:58.903Z,7.20
2022-12-25T00:27:45.777Z,9.05
2022-12-25T00:28:32.675Z,7.65
2022-12-25T00:29:19.507Z,8.48
2022-12-25T00:30:08.057Z,8.10
2022-12-25T00:30:54.908Z,6.60
2022-12-25T00:31:41.910Z,9.25
2022-12-25T00:32:28.800Z,9.40
2022-12-25T00:33:16.287Z,8.57
2022-12-25T00:34:03.175Z,10.20
2022-12-25T00:34:50.058Z,9.30
2022-12-25T00:35:36.969Z,8.68
2022-12-25T00:36:24.312Z,7.12
2022-12-25T00:37:11.178Z,8.25
2022-12-25T00:37:58.060Z,8.07
2022-12-25T00:38:45.245Z,6.87
2022-12-25T00:39:32.129Z,6.50
2022-12-25T00:40:19.128Z,7.78
2022-12-25T00:41:11.388Z,12.18
2022-12-25T00:42:16.740Z,8.93
2022-12-25T00:43:03.578Z,10.32
2022-12-25T00:43:50.424Z,9.90
2022-12-25T00:44:37.381Z,8.75
2022-12-25T00:45:24.425Z,8.75
2022-12-25T00:46:13.046Z,8.88
2022-12-25T00:47:00.161Z,8.43
2022-12-25T00:47:47.068Z,9.25
2022-12-25T00:48:34.873Z,8.60
2022-12-25T00:49:23.877Z,9.27
2022-12-25T00:50:11.131Z,7.60
2022-12-25T00:51:00.319Z,9.13
2022-12-25T00:51:47.236Z,10.70
2022-12-25T00:52:34.136Z,7.70
2022-12-25T00:53:21.176Z,7.87
2022-12-25T00:54:08.780Z,7.32
2022-12-25T00:54:55.647Z,7.53
2022-12-25T00:55:42.507Z,8.45
2022-12-25T00:56:29.426Z,7.18
2022-12-25T00:57:16.326Z,9.60
2022-12-25T00:58:03.217Z,9.48
2022-12-25T00:58:50.136Z,11.05
2022-12-25T00:59:37.022Z,8.48
2022-12-25T01:00:23.931Z,8.75
2022-12-25T01:01:11.529Z,9.00
2022-12-25T01:02:18.513Z,9.70
2022-12-25T01:03:05.527Z,8.52
2022-12-25T01:03:52.427Z,8.30
2022-12-25T01:04:39.289Z,10.25
2022-12-25T01:05:26.185Z,10.05
2022-12-25T01:06:13.382Z,9.50
2022-12-25T01:07:00.271Z,10.70
2022-12-25T01:07:47.177Z,10.70
2022-12-25T01:08:36.735Z,9.60
2022-12-25T01:09:42.362Z,11.05
2022-12-25T01:10:29.287Z,9.65
2022-12-25T01:11:16.126Z,12.88
2022-12-25T01:12:02.954Z,10.77
2022-12-25T01:12:50.528Z,12.25
2022-12-25T01:13:38.056Z,12.40
2022-12-25T01:14:24.899Z,9.05
2022-12-25T01:15:12.857Z,9.95
2022-12-25T01:15:59.745Z,9.40
2022-12-25T01:16:47.144Z,14.07
2022-12-25T01:17:34.527Z,10.57
2022-12-25T01:18:23.036Z,11.02
2022-12-25T01:19:10.337Z,9.93
2022-12-25T01:19:57.227Z,12.43
2022-12-25T01:20:44.077Z,10.95
2022-12-25T01:21:31.598Z,11.43
2022-12-25T01:22:18.789Z,10.20
2022-12-25T01:23:05.706Z,10.50
2022-12-25T01:23:53.591Z,9.13
2022-12-25T01:24:40.445Z,11.60
2022-12-25T01:25:27.268Z,10.68
2022-12-25T01:26:19.014Z,10.88
2022-12-25T01:27:05.926Z,12.45
2022-12-25T01:27:52.808Z,10.80
2022-12-25T01:28:40.263Z,11.25
2022-12-25T01:29:27.167Z,11.00
2022-12-25T01:30:14.148Z,15.25
2022-12-25T01:31:01.298Z,13.60
2022-12-25T01:31:48.279Z,13.32
2022-12-25T01:32:35.195Z,11.90
2022-12-25T01:33:22.036Z,12.13
2022-12-25T01:34:08.887Z,15.70
2022-12-25T01:34:56.476Z,10.60
2022-12-25T01:35:43.446Z,10.43
2022-12-25T01:36:30.396Z,11.12
2022-12-25T01:37:17.247Z,10.05
2022-12-25T01:38:04.068Z,11.98
2022-12-25T01:38:52.252Z,10.68
2022-12-25T01:39:39.197Z,12.68
2022-12-25T01:40:26.110Z,10.65
2022-12-25T01:41:13.937Z,11.10
2022-12-25T01:42:00.784Z,9.73
2022-12-25T01:42:47.637Z,12.73
2022-12-25T01:43:34.656Z,11.15
2022-12-25T01:44:36.889Z,9.73
2022-12-25T01:45:35.849Z,11.88
2022-12-25T01:46:22.795Z,9.52
2022-12-25T01:47:09.696Z,9.70
2022-12-25T01:47:56.654Z,14.55
2022-12-25T01:48:43.537Z,10.63
2022-12-25T01:49:32.607Z,11.12
2022-12-25T01:50:20.227Z,12.55
2022-12-25T01:51:15.928Z,11.60
2022-12-25T01:52:23.597Z,9.40
2022-12-25T01:53:11.177Z,10.02
2022-12-25T01:54:00.161Z,11.48
2022-12-25T01:54:54.367Z,8.63
2022-12-25T01:55:42.847Z,11.02
2022-12-25T01:56:30.447Z,16.55
2022-12-25T01:57:22.367Z,12.20
2022-12-25T01:58:10.071Z,9.88
2022-12-25T01:58:57.795Z,10.55
2022-12-25T01:59:44.886Z,14.50
2022-12-25T02:00:31.876Z,10.70
2022-12-25T02:01:18.870Z,14.25
2022-12-25T02:02:06.041Z,9.55
2022-12-25T02:02:53.114Z,10.27
2022-12-25T02:03:42.585Z,11.90
2022-12-25T02:04:40.688Z,12.45
2022-12-25T02:05:33.054Z,11.25
2022-12-25T02:06:19.985Z,12.30
2022-12-25T02:07:15.916Z,12.98
2022-12-25T02:08:08.477Z,10.98
2022-12-25T02:08:55.378Z,12.43
2022-12-25T02:09:43.066Z,10.25
2022-12-25T02:10:30.292Z,9.85
2022-12-25T02:11:37.113Z,12.02
2022-12-25T02:12:27.212Z,11.95
2022-12-25T02:13:16.890Z,12.07
2022-12-25T02:14:03.761Z,11.32
2022-12-25T02:14:53.056Z,9.82
2022-12-25T02:16:17.781Z,11.90
2022-12-25T02:17:07.678Z,10.05
2022-12-25T02:18:00.125Z,10.98
2022-12-25T02:18:54.584Z,11.05
2022-12-25T02:20:04.020Z,13.40
2022-12-25T02:21:30.955Z,9.70
2022-12-25T02:22:35.006Z,11.00
2022-12-25T02:23:46.066Z,12.60
2022-12-25T02:25:47.347Z,9.48
2022-12-25T02:27:01.361Z,13.93
2022-12-25T02:28:04.769Z,9.95
2022-12-25T02:29:34.368Z,14.87
2022-12-25T02:30:22.331Z,11.05
2022-12-25T02:31:38.211Z,10.45
2022-12-25T02:32:30.672Z,12.45
2022-12-25T02:33:45.240Z,13.07
2022-12-25T02:34:36.095Z,10.82
2022-12-25T02:35:28.797Z,14.15
2022-12-25T02:36:21.310Z,10.93
2022-12-25T02:37:17.151Z,10.35
2022-12-25T02:38:12.739Z,10.55
2022-12-25T02:39:21.241Z,10.63
2022-12-25T02:40:21.280Z,11.45
2022-12-25T02:41:12.091Z,11.77
2022-12-25T02:42:00.927Z,12.13
2022-12-25T02:43:12.234Z,12.02
2022-12-25T02:44:20.337Z,11.50
2022-12-25T02:45:26.007Z,10.52
2022-12-25T02:46:34.440Z,9.07
2022-12-25T02:47:40.932Z,12.73
2022-12-25T02:48:49.020Z,10.20
2022-12-25T02:49:54.904Z,11.43
2022-12-25T02:51:00.381Z,9.88
2022-12-25T02:52:11.019Z,11.95
2022-12-25T02:53:17.888Z,12.07
2022-12-25T02:54:26.847Z,9.43
2022-12-25T02:55:36.563Z,13.38
2022-12-25T02:56:42.517Z,11.12
2022-12-25T02:58:06.581Z,10.10
2022-12-25T02:59:12.281Z,9.52
2022-12-25T03:00:19.506Z,10.45
2022-12-25T03:01:29.661Z,12.55
2022-12-25T03:02:36.272Z,9.95
2022-12-25T03:03:45.248Z,10.27
2022-12-25T03:04:51.300Z,10.18
2022-12-25T03:05:59.739Z,11.55
2022-12-25T03:07:04.608Z,10.77
2022-12-25T03:07:51.718Z,10.02
2022-12-25T03:08:41.164Z,9.45
2022-12-25T03:09:49.519Z,11.30
2022-12-25T03:10:57.026Z,11.95
2022-12-25T03:11:46.043Z,13.32
2022-12-25T03:12:59.977Z,11.02
2022-12-25T03:13:50.158Z,11.55
2022-12-25T03:14:55.529Z,9.07
2022-12-25T03:16:01.302Z,10.20
2022-12-25T03:16:54.658Z,9.95
2022-12-25T03:17:41.838Z,10.48
2022-12-25T03:18:31.105Z,12.52
2022-12-25T03:19:37.494Z,10.30
2022-12-25T03:20:44.025Z,10.40
2022-12-25T03:21:49.490Z,13.32
2022-12-25T03:22:55.088Z,11.07
2022-12-25T03:24:04.181Z,10.35
2022-12-25T03:25:09.704Z,9.32
2022-12-25T03:26:15.098Z,11.40
2022-12-25T03:27:01.999Z,10.02
2022-12-25T03:27:51.277Z,11.35
2022-12-25T03:28:38.151Z,11.48
2022-12-25T03:29:53.059Z,10.68
2022-12-25T03:30:58.265Z,12.20
2022-12-25T03:31:54.446Z,10.88
2022-12-25T03:32:49.621Z,10.77
2022-12-25T03:34:11.456Z,10.60
2022-12-25T03:35:25.962Z,10.45
2022-12-25T03:36:25.667Z,10.68
2022-12-25T03:37:43.816Z,9.07
2022-12-25T03:38:52.518Z,13.80
2022-12-25T03:39:54.959Z,9.98
2022-12-25T03:41:10.187Z,9.65
2022-12-25T03:42:19.772Z,9.40
2022-12-25T03:43:37.918Z,9.52
2022-12-25T03:44:43.101Z,9.13
2022-12-25T03:45:59.273Z,10.38
2022-12-25T03:47:22.618Z,10.40
2022-12-25T03:48:13.819Z,10.25
2022-12-25T03:49:26.694Z,8.68
2022-12-25T03:50:37.888Z,9.82
2022-12-25T03:51:49.323Z,8.57
2022-12-25T03:52:55.632Z,10.57
2022-12-25T03:54:07.333Z,9.98
2022-12-25T03:55:15.632Z,8.73
2022-12-25T03:56:21.770Z,12.32
2022-12-25T03:57:28.228Z,11.35
2022-12-25T03:58:39.079Z,10.00
2022-12-25T03:59:44.697Z,10.75
2022-12-25T04:00:50.265Z,10.65
2022-12-25T04:01:55.831Z,13.32
2022-12-25T04:03:01.429Z,9.65
2022-12-25T04:04:07.226Z,8.63
2022-12-25T04:05:12.833Z,8.98
2022-12-25T04:06:18.458Z,9.48
2022-12-25T04:07:24.253Z,10.73
2022-12-25T04:08:29.940Z,9.65
2022-12-25T04:09:35.607Z,9.98
2022-12-25T04:10:41.287Z,8.50
2022-12-25T04:11:46.875Z,8.68
2022-12-25T04:12:52.626Z,9.68
2022-12-25T04:13:58.350Z,11.57
2022-12-25T04:15:03.920Z,11.25
2022-12-25T04:16:24.769Z,9.23
2022-12-25T04:17:29.911Z,9.15
2022-12-25T04:18:52.391Z,8.57
2022-12-25T04:19:58.189Z,10.25
2022-12-25T04:21:03.762Z,9.65
2022-12-25T04:22:09.241Z,9.13
2022-12-25T04:23:14.852Z,8.55
2022-12-25T04:24:20.426Z,10.40
2022-12-25T04:25:26.093Z,9.50
2022-12-25T04:26:31.733Z,10.63
2022-12-25T04:27:37.331Z,9.50
2022-12-25T04:28:42.833Z,9.63
2022-12-25T04:29:48.484Z,8.82
2022-12-25T04:30:54.319Z,8.63
2022-12-25T04:31:59.967Z,10.23
2022-12-25T04:33:05.346Z,10.40
2022-12-25T04:34:10.943Z,11.10
2022-12-25T04:35:16.579Z,10.35
2022-12-25T04:36:09.626Z,11.95
2022-12-25T04:36:56.634Z,9.82
2022-12-25T04:37:43.528Z,10.50
2022-12-25T04:38:30.389Z,10.07
2022-12-25T04:39:17.391Z,8.93
2022-12-25T04:40:04.783Z,10.30
2022-12-25T04:40:51.650Z,9.75
2022-12-25T04:41:38.643Z,9.38
2022-12-25T04:42:25.491Z,8.77
2022-12-25T04:43:12.387Z,10.88
2022-12-25T04:43:59.258Z,10.05
2022-12-25T04:44:46.110Z,9.27
2022-12-25T04:45:33.044Z,9.73
2022-12-25T04:46:19.970Z,9.13
2022-12-25T04:47:11.118Z,13.35
2022-12-25T04:48:01.372Z,11.95
2022-12-25T04:48:48.434Z,10.27
2022-12-25T04:49:35.343Z,8.90
2022-12-25T04:50:22.204Z,9.50
2022-12-25T04:51:12.697Z,10.43
2022-12-25T04:51:59.569Z,11.00
2022-12-25T04:52:46.449Z,11.45
2022-12-25T04:53:33.263Z,8.32
2022-12-25T04:54:20.179Z,8.40
2022-12-25T04:55:08.044Z,9.27
2022-12-25T04:56:01.665Z,8.23
2022-12-25T04:56:48.506Z,9.27
2022-12-25T04:57:35.563Z,11.07
2022-12-25T04:58:22.431Z,8.18
2022-12-25T04:59:09.336Z,9.73
2022-12-25T04:59:56.232Z,8.98
2022-12-25T05:00:43.095Z,8.88
2022-12-25T05:01:30.156Z,9.20
2022-12-25T05:02:17.158Z,12.63
2022-12-25T05:03:04.218Z,9.25
2022-12-25T05:03:51.197Z,9.55
2022-12-25T05:04:38.117Z,10.15
2022-12-25T05:05:25.208Z,9.07
2022-12-25T05:06:12.042Z,8.80
2022-12-25T05:06:58.861Z,11.02
2022-12-25T05:07:45.846Z,10.88
2022-12-25T05:08:34.323Z,9.18
2022-12-25T05:09:21.703Z,10.63
2022-12-25T05:10:08.991Z,8.85
2022-12-25T05:10:55.873Z,10.45
2022-12-25T05:11:42.725Z,9.80
2022-12-25T05:12:29.544Z,11.95
2022-12-25T05:13:16.717Z,9.98
2022-12-25T05:14:03.693Z,9.13
2022-12-25T05:14:50.639Z,9.43
2022-12-25T05:15:40.500Z,9.88
2022-12-25T05:16:27.602Z,9.00
2022-12-25T05:17:14.525Z,8.25
2022-12-25T05:18:01.444Z,10.70
2022-12-25T05:18:52.230Z,8.30
2022-12-25T05:19:39.066Z,9.82
2022-12-25T05:20:26.088Z,7.97
2022-12-25T05:21:13.253Z,11.77
2022-12-25T05:22:00.106Z,8.50
2022-12-25T05:22:46.929Z,10.40
2022-12-25T05:23:34.263Z,11.00
2022-12-25T05:24:21.182Z,7.75
2022-12-25T05:25:08.402Z,9.65
2022-12-25T05:25:55.260Z,8.68
2022-12-25T05:26:42.072Z,8.57
2022-12-25T05:27:28.940Z,11.68
2022-12-25T05:28:16.100Z,9.77
2022-12-25T05:29:02.900Z,9.98
2022-12-25T05:29:49.812Z,8.63
2022-12-25T05:30:36.793Z,9.02
2022-12-25T05:31:23.776Z,6.85
2022-12-25T05:32:10.698Z,9.23
2022-12-25T05:32:57.647Z,9.40
2022-12-25T05:33:44.620Z,10.00
2022-12-25T05:34:31.466Z,8.45
2022-12-25T05:35:18.373Z,9.13
2022-12-25T05:36:07.310Z,7.53
2022-12-25T05:36:54.144Z,8.07
2022-12-25T05:37:41.000Z,8.23
2022-12-25T05:38:27.883Z,9.63
2022-12-25T05:39:14.737Z,7.72
2022-12-25T05:40:02.467Z,9.88
2022-12-25T05:40:51.569Z,8.05
2022-12-25T05:41:38.409Z,10.95
2022-12-25T05:42:25.271Z,8.05
2022-12-25T05:43:12.152Z,10.68
2022-12-25T05:43:59.057Z,6.90
2022-12-25T05:44:45.907Z,8.90
2022-12-25T05:45:32.843Z,10.00
2022-12-25T05:46:19.765Z,13.00
2022-12-25T05:47:06.674Z,7.43
2022-12-25T05:47:53.719Z,9.27
2022-12-25T05:48:40.581Z,8.95
2022-12-25T05:49:27.447Z,8.27
2022-12-25T05:50:14.320Z,9.32
2022-12-25T05:51:09.662Z,8.00
2022-12-25T05:51:56.504Z,9.20
2022-12-25T05:52:43.395Z,9.27
2022-12-25T05:53:30.262Z,9.82
2022-12-25T05:54:17.292Z,10.13
2022-12-25T05:55:04.433Z,9.60
2022-12-25T05:55:51.375Z,10.70
2022-12-25T05:56:38.718Z,9.50
2022-12-25T05:57:26.192Z,7.57
2022-12-25T05:58:13.798Z,8.70
2022-12-25T05:59:00.642Z,8.00
2022-12-25T05:59:47.534Z,7.85
2022-12-25T06:00:35.017Z,9.43
2022-12-25T06:01:25.386Z,9.52
2022-12-25T06:02:12.496Z,8.10
2022-12-25T06:02:59.989Z,8.52
2022-12-25T06:03:47.381Z,8.52
2022-12-25T06:04:34.329Z,6.93
2022-12-25T06:05:21.275Z,8.30
2022-12-25T06:06:08.542Z,8.70
2022-12-25T06:06:55.434Z,10.85
2022-12-25T06:07:42.263Z,7.68
2022-12-25T06:08:29.209Z,10.15
2022-12-25T06:09:16.075Z,7.97
2022-12-25T06:10:02.969Z,9.27
2022-12-25T06:10:49.852Z,8.50
2022-12-25T06:11:36.730Z,7.93
2022-12-25T06:12:23.631Z,9.18
2022-12-25T06:13:10.584Z,7.90
2022-12-25T06:13:57.443Z,10.35
2022-12-25T06:14:44.382Z,7.75
2022-12-25T06:15:31.277Z,7.15
2022-12-25T06:16:18.529Z,10.13
2022-12-25T06:17:05.506Z,9.25
2022-12-25T06:17:52.456Z,11.02
2022-12-25T06:18:45.119Z,7.85
2022-12-25T06:19:31.987Z,8.77
2022-12-25T06:20:18.912Z,10.43
2022-12-25T06:21:13.339Z,8.40
2022-12-25T06:22:00.270Z,8.52
2022-12-25T06:22:47.349Z,8.57
2022-12-25T06:23:34.424Z,7.95
2022-12-25T06:24:22.663Z,7.90
2022-12-25T06:25:10.002Z,10.80
2022-12-25T06:25:57.185Z,10.77
2022-12-25T06:26:44.045Z,8.70
2022-12-25T06:27:30.961Z,8.43
2022-12-25T06:28:17.826Z,6.40
2022-12-25T06:29:04.832Z,8.18
2022-12-25T06:29:52.044Z,7.93
2022-12-25T06:30:38.890Z,6.80
2022-12-25T06:31:25.985Z,7.90
2022-12-25T06:32:12.854Z,9.77
2022-12-25T06:33:00.421Z,6.82
2022-12-25T06:33:47.645Z,8.70
2022-12-25T06:34:34.482Z,11.70
2022-12-25T06:35:21.330Z,7.55
2022-12-25T06:36:19.817Z,9.00
2022-12-25T06:37:06.862Z,7.60
2022-12-25T06:37:53.982Z,6.57
2022-12-25T06:38:41.682Z,6.80
2022-12-25T06:39:28.628Z,8.07
2022-12-25T06:40:15.570Z,8.35
2022-12-25T06:41:10.577Z,7.75
2022-12-25T06:41:57.466Z,9.00
2022-12-25T06:42:44.444Z,6.37
2022-12-25T06:43:31.293Z,6.28
2022-12-25T06:44:18.212Z,9.02
2022-12-25T06:45:05.533Z,7.32
2022-12-25T06:45:53.295Z,8.30
2022-12-25T06:46:40.511Z,8.07
2022-12-25T06:47:27.322Z,7.15
2022-12-25T06:48:14.168Z,8.32
2022-12-25T06:49:01.390Z,8.50
2022-12-25T06:49:48.270Z,8.85
2022-12-25T06:50:35.136Z,7.28
2022-12-25T06:51:24.549Z,6.68
2022-12-25T06:52:11.371Z,9.02
2022-12-25T06:52:58.234Z,9.05
2022-12-25T06:53:45.211Z,8.10
2022-12-25T06:54:32.092Z,6.93
2022-12-25T06:55:18.981Z,7.45
2022-12-25T06:56:15.908Z,7.62
2022-12-25T06:57:02.841Z,8.18
2022-12-25T06:57:49.672Z,6.93
2022-12-25T06:58:36.569Z,5.62
2022-12-25T06:59:23.474Z,8.25
2022-12-25T07:00:10.840Z,7.62
2022-12-25T07:00:58.210Z,7.70
2022-12-25T07:01:47.855Z,7.25
2022-12-25T07:02:35.628Z,4.80
2022-12-25T07:03:22.774Z,6.82
2022-12-25T07:04:39.302Z,8.45
2022-12-25T07:05:26.211Z,9.70
2022-12-25T07:06:13.112Z,7.78
2022-12-25T07:07:06.107Z,9.20
2022-12-25T07:07:55.191Z,7.30
2022-12-25T07:08:42.051Z,6.50
2022-12-25T07:09:28.965Z,7.87
2022-12-25T07:10:15.884Z,7.55
2022-12-25T07:11:02.971Z,8.85
2022-12-25T07:11:49.804Z,6.25
2022-12-25T07:12:36.840Z,8.27
2022-12-25T07:13:24.527Z,6.32
2022-12-25T07:14:24.148Z,8.55
2022-12-25T07:15:11.574Z,6.25
2022-12-25T07:16:02.807Z,7.97
2022-12-25T07:16:50.406Z,7.20
2022-12-25T07:17:37.430Z,6.45
2022-12-25T07:18:24.525Z,6.85
2022-12-25T07:19:11.770Z,7.07
2022-12-25T07:19:58.589Z,6.50
2022-12-25T07:20:45.410Z,8.18
2022-12-25T07:21:32.261Z,9.75
2022-12-25T07:22:19.119Z,7.03
2022-12-25T07:23:06.051Z,6.40
2022-12-25T07:23:53.036Z,7.18
2022-12-25T07:24:39.915Z,6.90
2022-12-25T07:25:29.756Z,6.20
2022-12-25T07:26:19.419Z,8.40
2022-12-25T07:27:06.477Z,7.22
2022-12-25T07:27:53.341Z,5.68
2022-12-25T07:28:40.265Z,7.37
2022-12-25T07:29:27.131Z,6.05
2022-12-25T07:30:14.301Z,6.78
2022-12-25T07:31:05.192Z,7.90
2022-12-25T07:31:52.072Z,9.02
2022-12-25T07:32:39.067Z,7.15
2022-12-25T07:33:25.921Z,6.65
2022-12-25T07:34:12.887Z,6.57
2022-12-25T07:34:59.770Z,8.65
2022-12-25T07:35:46.799Z,8.60
2022-12-25T07:36:33.663Z,6.40
2022-12-25T07:37:20.483Z,6.82
2022-12-25T07:38:07.331Z,8.82
2022-12-25T07:38:54.275Z,6.62
2022-12-25T07:39:41.568Z,6.62
2022-12-25T07:40:28.473Z,8.50
2022-12-25T07:41:15.460Z,6.40
2022-12-25T07:42:02.340Z,7.85
2022-12-25T07:42:49.174Z,6.80
2022-12-25T07:43:36.021Z,5.62
2022-12-25T07:44:22.896Z,7.70
2022-12-25T07:45:10.270Z,7.93
2022-12-25T07:45:58.998Z,8.57
2022-12-25T07:46:46.325Z,7.32
2022-12-25T07:47:33.199Z,6.72
2022-12-25T07:48:20.082Z,8.18
2022-12-25T07:49:07.001Z,7.07
2022-12-25T07:49:53.930Z,6.37
2022-12-25T07:50:40.925Z,6.75
2022-12-25T07:51:30.302Z,6.55
2022-12-25T07:52:17.220Z,6.70
2022-12-25T07:53:04.171Z,7.78
2022-12-25T07:53:51.090Z,8.45
2022-12-25T07:54:37.921Z,6.53
2022-12-25T07:55:24.805Z,6.32
2022-12-25T07:56:19.754Z,7.78
2022-12-25T07:57:08.246Z,7.65
2022-12-25T07:57:55.183Z,7.93
2022-12-25T07:58:42.571Z,5.87
2022-12-25T07:59:29.371Z,6.47
2022-12-25T08:00:16.932Z,8.77
2022-12-25T08:01:06.645Z,5.45
2022-12-25T08:01:53.825Z,6.62
2022-12-25T08:02:41.130Z,7.80
2022-12-25T08:03:28.312Z,8.23
2022-12-25T08:04:15.344Z,6.15
2022-12-25T08:05:02.343Z,9.20
2022-12-25T08:05:49.253Z,8.07
2022-12-25T08:06:36.439Z,5.15
2022-12-25T08:07:23.633Z,6.55
2022-12-25T08:08:10.518Z,5.70
2022-12-25T08:09:09.143Z,6.95
2022-12-25T08:09:56.007Z,6.30
2022-12-25T08:10:47.292Z,6.53
2022-12-25T08:11:34.162Z,5.62
2022-12-25T08:12:21.069Z,6.12
2022-12-25T08:13:14.125Z,7.75
2022-12-25T08:14:01.508Z,9.00
2022-12-25T08:14:48.426Z,8.25
2022-12-25T08:15:35.333Z,5.80
2022-12-25T08:16:22.958Z,9.60
2022-12-25T08:17:09.871Z,5.72
2022-12-25T08:17:56.785Z,6.50
2022-12-25T08:18:43.915Z,5.20
2022-12-25T08:19:30.935Z,5.43
2022-12-25T08:20:17.861Z,12.82
2022-12-25T08:21:06.132Z,6.22
2022-12-25T08:21:52.981Z,6.05
2022-12-25T08:22:39.814Z,5.53
2022-12-25T08:23:27.041Z,6.22
2022-12-25T08:24:13.951Z,6.28
2022-12-25T08:25:00.889Z,7.47
2022-12-25T08:25:47.773Z,5.97
2022-12-25T08:26:34.738Z,5.40
2022-12-25T08:27:21.602Z,5.32
2022-12-25T08:28:08.540Z,5.87
2022-12-25T08:28:55.401Z,8.57
2022-12-25T08:29:44.841Z,5.07
2022-12-25T08:30:31.827Z,7.18
2022-12-25T08:31:24.185Z,7.47
2022-12-25T08:32:11.167Z,7.10
2022-12-25T08:32:58.000Z,5.80
2022-12-25T08:33:45.183Z,6.65
2022-12-25T08:34:32.092Z,10.18
2022-12-25T08:35:19.012Z,6.53
2022-12-25T08:36:07.944Z,5.30
2022-12-25T08:36:54.841Z,5.68
2022-12-25T08:37:41.842Z,6.60
2022-12-25T08:38:28.745Z,6.25
2022-12-25T08:39:15.701Z,4.80
2022-12-25T08:40:02.571Z,9.43
2022-12-25T08:40:49.687Z,5.47
2022-12-25T08:41:36.735Z,5.82
2022-12-25T08:42:23.543Z,5.22
2022-12-25T08:43:10.370Z,7.50
2022-12-25T08:43:57.272Z,6.07
2022-12-25T08:44:44.323Z,6.15
2022-12-25T08:45:35.248Z,4.93
2022-12-25T08:46:22.562Z,7.00
2022-12-25T08:47:09.431Z,4.70
2022-12-25T08:47:57.201Z,6.00
2022-12-25T08:48:47.965Z,5.97
2022-12-25T08:49:34.866Z,5.82
2022-12-25T08:50:25.890Z,5.82
2022-12-25T08:51:15.097Z,7.70
2022-12-25T08:52:02.004Z,6.50
2022-12-25T08:52:49.046Z,6.43
2022-12-25T08:53:35.903Z,7.45
2022-12-25T08:54:22.792Z,6.20
2022-12-25T08:55:10.009Z,7.22
2022-12-25T08:56:01.309Z,5.43
2022-12-25T08:56:48.144Z,4.95
2022-12-25T08:57:35.073Z,6.82
2022-12-25T08:58:21.909Z,5.87
2022-12-25T08:59:55.690Z,6.25
2022-12-25T09:00:42.762Z,8.15
2022-12-25T09:01:29.730Z,5.93
2022-12-25T09:02:17.680Z,5.53
2022-12-25T09:03:04.950Z,6.93
2022-12-25T09:03:51.984Z,7.57
2022-12-25T09:04:39.077Z,5.30
2022-12-25T09:05:26.056Z,6.00
2022-12-25T09:06:14.890Z,4.57
2022-12-25T09:07:02.852Z,5.45
2022-12-25T09:07:49.712Z,7.35
2022-12-25T09:08:41.025Z,6.95
2022-12-25T09:09:31.715Z,6.90
2022-12-25T09:10:18.653Z,7.68
2022-12-25T09:11:11.426Z,6.07
2022-12-25T09:11:58.309Z,6.97
2022-12-25T09:12:45.172Z,8.27
2022-12-25T09:13:32.154Z,6.75
2022-12-25T09:14:19.073Z,7.62
2022-12-25T09:15:06.376Z,6.60
2022-12-25T09:15:53.277Z,6.00
2022-12-25T09:16:40.252Z,5.82
2022-12-25T09:17:27.151Z,9.38
2022-12-25T09:18:14.327Z,4.70
2022-12-25T09:19:01.213Z,7.87
2022-12-25T09:19:48.091Z,5.82
2022-12-25T09:20:34.972Z,5.87
2022-12-25T09:21:21.893Z,6.35
2022-12-25T09:22:08.703Z,6.20
2022-12-25T09:22:55.562Z,8.20
2022-12-25T09:23:42.657Z,6.87
2022-12-25T09:24:29.553Z,4.78
2022-12-25T09:25:16.516Z,5.80
2022-12-25T09:26:04.944Z,6.78
2022-12-25T09:26:51.860Z,6.50
2022-12-25T09:27:38.751Z,6.62
2022-12-25T09:28:25.887Z,5.97
2022-12-25T09:29:12.847Z,5.68
2022-12-25T09:29:59.735Z,4.78
2022-12-25T09:30:46.774Z,6.20
2022-12-25T09:31:33.794Z,5.97
2022-12-25T09:32:20.650Z,7.60
2022-12-25T09:33:07.635Z,5.45
2022-12-25T09:33:57.161Z,8.00
2022-12-25T09:34:44.012Z,7.57
2022-12-25T09:35:30.891Z,5.85
2022-12-25T09:36:18.014Z,4.75
2022-12-25T09:37:04.848Z,5.82
2022-12-25T09:37:51.677Z,5.85
2022-12-25T09:38:38.614Z,7.20
2022-12-25T09:39:25.421Z,7.65
2022-12-25T09:40:16.245Z,7.00
2022-12-25T09:41:31.799Z,7.55
2022-12-25T09:42:23.059Z,7.70
2022-12-25T09:43:12.376Z,7.00
2022-12-25T09:44:26.792Z,9.85
2022-12-25T09:45:25.913Z,8.13
2022-12-25T09:46:16.394Z,12.32
2022-12-25T09:47:06.823Z,8.95
2022-12-25T09:47:56.813Z,9.32
2022-12-25T09:48:57.741Z,9.05
2022-12-25T09:50:12.038Z,9.52
2022-12-25T09:51:09.439Z,11.82
2022-12-25T09:52:01.811Z,11.63
2022-12-25T09:52:51.805Z,9.20
2022-12-25T09:53:48.801Z,11.15
2022-12-25T09:54:44.559Z,14.05
2022-12-25T09:55:33.749Z,18.23
2022-12-25T09:56:26.071Z,18.12
2022-12-25T09:57:14.346Z,27.70
2022-12-25T09:58:03.121Z,18.90
2022-12-25T09:58:49.981Z,18.12
2022-12-25T09:59:37.120Z,19.25
2022-12-25T10:00:26.033Z,18.50
2022-12-25T10:01:12.899Z,15.25
2022-12-25T10:02:41.434Z,17.08
2022-12-25T10:03:38.557Z,14.30
2022-12-25T10:04:41.334Z,12.52
2022-12-25T10:05:28.213Z,13.93
2022-12-25T10:06:24.542Z,16.00
2022-12-25T10:07:45.945Z,14.68
2022-12-25T10:09:05.221Z,15.73
2022-12-25T10:10:19.863Z,14.40
2022-12-25T10:11:11.741Z,13.50
2022-12-25T10:12:17.321Z,18.05
2022-12-25T10:13:04.100Z,18.33
2022-12-25T10:14:17.318Z,15.88
2022-12-25T10:15:19.878Z,19.80
2022-12-25T10:16:28.144Z,20.50
2022-12-25T10:17:33.273Z,17.27
2022-12-25T10:18:51.042Z,17.30
2022-12-25T10:19:43.593Z,20.05
2022-12-25T10:21:00.580Z,16.33
2022-12-25T10:21:48.972Z,15.50
2022-12-25T10:22:41.313Z,15.68
2022-12-25T10:23:37.266Z,13.32
2022-12-25T10:24:35.401Z,14.68
2022-12-25T10:25:24.700Z,13.65
2022-12-25T10:26:20.038Z,12.65
2022-12-25T10:27:19.965Z,14.70
2022-12-25T10:28:14.573Z,13.37
2022-12-25T10:29:14.604Z,12.95
2022-12-25T10:30:02.318Z,13.60
2022-12-25T10:30:50.804Z,12.88
2022-12-25T10:31:37.853Z,15.57
2022-12-25T10:32:25.020Z,13.73
2022-12-25T10:33:17.043Z,12.80
2022-12-25T10:34:05.758Z,12.07
2022-12-25T10:34:52.748Z,11.07
2022-12-25T10:35:39.775Z,11.98
2022-12-25T10:36:28.531Z,12.37
2022-12-25T10:37:15.401Z,13.02
2022-12-25T10:38:06.842Z,11.05
2022-12-25T10:38:54.385Z,11.70
2022-12-25T10:39:46.372Z,13.32
2022-12-25T10:40:57.102Z,12.00
2022-12-25T10:42:19.084Z,13.00
2022-12-25T10:43:13.304Z,13.82
2022-12-25T10:44:00.481Z,12.37
2022-12-25T10:44:57.902Z,15.82
2022-12-25T10:45:49.410Z,13.27
2022-12-25T10:46:36.363Z,12.50
2022-12-25T10:47:34.737Z,11.05
2022-12-25T10:48:23.603Z,10.43
2022-12-25T10:49:16.157Z,14.95
2022-12-25T10:50:10.213Z,11.60
2022-12-25T10:50:57.520Z,12.45
2022-12-25T10:51:44.616Z,12.73
2022-12-25T10:52:31.481Z,11.77
2022-12-25T10:53:23.238Z,12.37
2022-12-25T10:54:25.988Z,10.65
2022-12-25T10:55:13.816Z,12.15
2022-12-25T10:56:03.403Z,11.50
2022-12-25T10:56:58.357Z,13.55
2022-12-25T10:57:46.693Z,10.38
2022-12-25T10:58:34.150Z,12.48
2022-12-25T10:59:21.011Z,12.63
2022-12-25T11:00:20.744Z,11.23
2022-12-25T11:01:08.018Z,14.27
2022-12-25T11:01:55.929Z,11.70
2022-12-25T11:02:42.994Z,13.85
2022-12-25T11:03:35.601Z,12.85
2022-12-25T11:04:26.371Z,14.45
2022-12-25T11:05:18.425Z,13.88
2022-12-25T11:06:05.941Z,12.55
2022-12-25T11:06:59.424Z,14.85
2022-12-25T11:07:51.438Z,13.60
2022-12-25T11:08:38.361Z,13.32
2022-12-25T11:09:25.347Z,13.10
2022-12-25T11:10:37.755Z,12.82
2022-12-25T11:11:25.050Z,12.00
2022-12-25T11:12:18.580Z,14.38
2022-12-25T11:13:07.819Z,10.85
2022-12-25T11:13:57.785Z,11.90
2022-12-25T11:14:55.881Z,13.35
2022-12-25T11:15:44.631Z,13.05
2022-12-25T11:16:38.210Z,11.43
2022-12-25T11:17:26.613Z,14.15
2022-12-25T11:18:23.746Z,11.55
2022-12-25T11:19:31.898Z,11.10
2022-12-25T11:20:20.419Z,11.50
2022-12-25T11:21:31.804Z,10.80